sensor_id;sensor_type;location;lat;lon;timestamp;temperature;humidity
64689;DHT22;62504;46.070;14.492;2023-04-24T00:00:35;15.30;99.90
64689;DHT22;62504;46.070;14.492;2023-04-24T00:03:01;15.10;99.90
64689;DHT22;62504;46.070;14.492;2023-04-24T00:05:28;15.10;99.90
64689;DHT22;62504;46.070;14.492;2023-04-24T00:07:54;15.10;99.90
64689;DHT22;62504;46.070;14.492;2023-04-24T00:10:20;15.10;99.90
64689;DHT22;62504;46.070;14.492;2023-04-24T00:12:46;15.10;99.90
64689;DHT22;62504;46.070;14.492;2023-04-24T00:15:12;15.00;99.90
64689;DHT22;62504;46.070;14.492;2023-04-24T00:17:38;15.00;99.90
64689;DHT22;62504;46.070;14.492;2023-04-24T00:20:04;15.00;99.90
64689;DHT22;62504;46.070;14.492;2023-04-24T00:22:32;15.00;99.90
64689;DHT22;62504;46.070;14.492;2023-04-24T00:24:58;15.00;99.90
64689;DHT22;62504;46.070;14.492;2023-04-24T00:27:24;15.00;99.90
64689;DHT22;62504;46.070;14.492;2023-04-24T00:29:50;14.90;99.90
64689;DHT22;62504;46.070;14.492;2023-04-24T00:32:15;15.00;99.90
64689;DHT22;62504;46.070;14.492;2023-04-24T00:34:41;14.90;99.90
64689;DHT22;62504;46.070;14.492;2023-04-24T00:37:07;14.90;99.90
64689;DHT22;62504;46.070;14.492;2023-04-24T00:39:33;14.80;99.90
64689;DHT22;62504;46.070;14.492;2023-04-24T00:41:59;14.70;99.90
64689;DHT22;62504;46.070;14.492;2023-04-24T00:44:25;14.80;99.90
64689;DHT22;62504;46.070;14.492;2023-04-24T00:46:50;14.70;99.90
64689;DHT22;62504;46.070;14.492;2023-04-24T00:49:20;14.70;99.90
64689;DHT22;62504;46.070;14.492;2023-04-24T00:51:46;14.70;99.90
64689;DHT22;62504;46.070;14.492;2023-04-24T00:54:15;14.60;99.90
64689;DHT22;62504;46.070;14.492;2023-04-24T00:56:41;14.60;99.90
64689;DHT22;62504;46.070;14.492;2023-04-24T00:59:08;14.50;99.90
64689;DHT22;62504;46.070;14.492;2023-04-24T01:01:33;14.50;99.90
64689;DHT22;62504;46.070;14.492;2023-04-24T01:04:00;14.60;99.90
64689;DHT22;62504;46.070;14.492;2023-04-24T01:06:28;14.60;99.90
64689;DHT22;62504;46.070;14.492;2023-04-24T01:08:54;14.60;99.90
64689;DHT22;62504;46.070;14.492;2023-04-24T01:11:24;14.50;99.90
64689;DHT22;62504;46.070;14.492;2023-04-24T01:13:51;14.50;99.90
64689;DHT22;62504;46.070;14.492;2023-04-24T01:16:18;14.50;99.90
64689;DHT22;62504;46.070;14.492;2023-04-24T01:18:46;14.50;99.90
64689;DHT22;62504;46.070;14.492;2023-04-24T01:21:14;14.60;99.90
64689;DHT22;62504;46.070;14.492;2023-04-24T01:23:45;14.50;99.90
64689;DHT22;62504;46.070;14.492;2023-04-24T01:26:12;14.50;99.90
64689;DHT22;62504;46.070;14.492;2023-04-24T01:28:38;14.50;99.90
64689;DHT22;62504;46.070;14.492;2023-04-24T01:31:03;14.40;99.90
64689;DHT22;62504;46.070;14.492;2023-04-24T01:33:29;14.40;99.90
64689;DHT22;62504;46.070;14.492;2023-04-24T01:35:55;14.20;99.90
64689;DHT22;62504;46.070;14.492;2023-04-24T01:38:20;14.10;99.90
64689;DHT22;62504;46.070;14.492;2023-04-24T01:40:46;14.10;99.90
64689;DHT22;62504;46.070;14.492;2023-04-24T01:43:13;14.00;99.90
64689;DHT22;62504;46.070;14.492;2023-04-24T01:45:38;13.80;99.90
64689;DHT22;62504;46.070;14.492;2023-04-24T01:48:04;13.90;99.90
64689;DHT22;62504;46.070;14.492;2023-04-24T01:50:30;13.70;99.90
64689;DHT22;62504;46.070;14.492;2023-04-24T01:52:56;13.50;99.90
64689;DHT22;62504;46.070;14.492;2023-04-24T01:55:22;13.70;99.90
64689;DHT22;62504;46.070;14.492;2023-04-24T01:57:49;13.80;99.90
64689;DHT22;62504;46.070;14.492;2023-04-24T02:00:15;13.90;99.90
64689;DHT22;62504;46.070;14.492;2023-04-24T02:02:41;13.80;99.90
64689;DHT22;62504;46.070;14.492;2023-04-24T02:05:07;13.90;99.90
64689;DHT22;62504;46.070;14.492;2023-04-24T02:07:34;13.90;99.90
64689;DHT22;62504;46.070;14.492;2023-04-24T02:09:59;14.10;99.90
64689;DHT22;62504;46.070;14.492;2023-04-24T02:12:25;14.10;99.90
64689;DHT22;62504;46.070;14.492;2023-04-24T02:14:51;14.10;99.90
64689;DHT22;62504;46.070;14.492;2023-04-24T02:17:17;14.20;99.90
64689;DHT22;62504;46.070;14.492;2023-04-24T02:19:43;14.20;99.90
64689;DHT22;62504;46.070;14.492;2023-04-24T02:22:08;14.20;99.90
64689;DHT22;62504;46.070;14.492;2023-04-24T02:24:34;14.20;99.90
64689;DHT22;62504;46.070;14.492;2023-04-24T02:26:59;14.30;99.90
64689;DHT22;62504;46.070;14.492;2023-04-24T02:29:25;14.30;99.90
64689;DHT22;62504;46.070;14.492;2023-04-24T02:31:51;14.30;99.90
64689;DHT22;62504;46.070;14.492;2023-04-24T02:34:16;14.30;99.90
64689;DHT22;62504;46.070;14.492;2023-04-24T02:36:42;14.40;99.90
64689;DHT22;62504;46.070;14.492;2023-04-24T02:39:08;14.40;99.90
64689;DHT22;62504;46.070;14.492;2023-04-24T02:41:33;14.40;99.90
64689;DHT22;62504;46.070;14.492;2023-04-24T02:43:59;14.30;99.90
64689;DHT22;62504;46.070;14.492;2023-04-24T02:46:25;14.40;99.90
64689;DHT22;62504;46.070;14.492;2023-04-24T02:48:51;14.40;99.90
64689;DHT22;62504;46.070;14.492;2023-04-24T02:51:16;14.50;99.90
64689;DHT22;62504;46.070;14.492;2023-04-24T02:53:42;14.40;99.90
64689;DHT22;62504;46.070;14.492;2023-04-24T02:56:08;14.40;99.90
64689;DHT22;62504;46.070;14.492;2023-04-24T02:58:34;14.40;99.90
64689;DHT22;62504;46.070;14.492;2023-04-24T03:00:59;14.50;99.90
64689;DHT22;62504;46.070;14.492;2023-04-24T03:03:26;14.40;99.90
64689;DHT22;62504;46.070;14.492;2023-04-24T03:05:51;14.40;99.90
64689;DHT22;62504;46.070;14.492;2023-04-24T03:08:17;14.40;99.90
64689;DHT22;62504;46.070;14.492;2023-04-24T03:10:43;14.30;99.90
64689;DHT22;62504;46.070;14.492;2023-04-24T03:13:09;14.40;99.90
64689;DHT22;62504;46.070;14.492;2023-04-24T03:15:35;14.30;99.90
64689;DHT22;62504;46.070;14.492;2023-04-24T03:18:00;14.30;99.90
64689;DHT22;62504;46.070;14.492;2023-04-24T03:20:26;14.30;99.90
64689;DHT22;62504;46.070;14.492;2023-04-24T03:22:52;14.30;99.90
64689;DHT22;62504;46.070;14.492;2023-04-24T03:25:18;14.30;99.90
64689;DHT22;62504;46.070;14.492;2023-04-24T03:27:43;14.40;99.90
64689;DHT22;62504;46.070;14.492;2023-04-24T03:30:10;14.20;99.90
64689;DHT22;62504;46.070;14.492;2023-04-24T03:32:36;13.90;99.90
64689;DHT22;62504;46.070;14.492;2023-04-24T03:35:01;13.80;99.90
64689;DHT22;62504;46.070;14.492;2023-04-24T03:37:27;13.80;99.90
64689;DHT22;62504;46.070;14.492;2023-04-24T03:39:53;13.90;99.90
64689;DHT22;62504;46.070;14.492;2023-04-24T03:42:18;13.90;99.90
64689;DHT22;62504;46.070;14.492;2023-04-24T03:44:44;13.80;99.90
64689;DHT22;62504;46.070;14.492;2023-04-24T03:47:10;13.70;99.90
64689;DHT22;62504;46.070;14.492;2023-04-24T03:49:35;13.60;99.90
64689;DHT22;62504;46.070;14.492;2023-04-24T03:52:01;13.60;99.90
64689;DHT22;62504;46.070;14.492;2023-04-24T03:54:27;13.60;99.90
64689;DHT22;62504;46.070;14.492;2023-04-24T03:56:53;13.70;99.90
64689;DHT22;62504;46.070;14.492;2023-04-24T03:59:18;13.70;99.90
64689;DHT22;62504;46.070;14.492;2023-04-24T04:01:44;13.70;99.90
64689;DHT22;62504;46.070;14.492;2023-04-24T04:04:11;13.70;99.90
64689;DHT22;62504;46.070;14.492;2023-04-24T04:06:36;13.70;99.90
64689;DHT22;62504;46.070;14.492;2023-04-24T04:09:02;13.70;99.90
64689;DHT22;62504;46.070;14.492;2023-04-24T04:11:29;13.60;99.90
64689;DHT22;62504;46.070;14.492;2023-04-24T04:13:55;13.60;99.90
64689;DHT22;62504;46.070;14.492;2023-04-24T04:16:22;13.70;99.90
64689;DHT22;62504;46.070;14.492;2023-04-24T04:18:48;13.60;99.90
64689;DHT22;62504;46.070;14.492;2023-04-24T04:21:13;13.60;99.90
64689;DHT22;62504;46.070;14.492;2023-04-24T04:23:39;13.70;99.90
64689;DHT22;62504;46.070;14.492;2023-04-24T04:26:05;13.70;99.90
64689;DHT22;62504;46.070;14.492;2023-04-24T04:28:31;13.60;99.90
64689;DHT22;62504;46.070;14.492;2023-04-24T04:30:57;13.70;99.90
64689;DHT22;62504;46.070;14.492;2023-04-24T04:33:24;13.80;99.90
64689;DHT22;62504;46.070;14.492;2023-04-24T04:35:51;13.80;99.90
64689;DHT22;62504;46.070;14.492;2023-04-24T04:38:22;13.80;99.90
64689;DHT22;62504;46.070;14.492;2023-04-24T04:40:48;13.90;99.90
64689;DHT22;62504;46.070;14.492;2023-04-24T04:43:14;14.00;99.90
64689;DHT22;62504;46.070;14.492;2023-04-24T04:45:42;14.00;99.90
64689;DHT22;62504;46.070;14.492;2023-04-24T04:48:09;14.00;99.90
64689;DHT22;62504;46.070;14.492;2023-04-24T04:50:37;14.00;99.90
64689;DHT22;62504;46.070;14.492;2023-04-24T04:53:03;13.90;99.90
64689;DHT22;62504;46.070;14.492;2023-04-24T04:55:29;13.90;99.90
64689;DHT22;62504;46.070;14.492;2023-04-24T04:57:55;13.90;99.90
64689;DHT22;62504;46.070;14.492;2023-04-24T05:00:22;14.00;99.90
64689;DHT22;62504;46.070;14.492;2023-04-24T05:02:50;13.90;99.90
64689;DHT22;62504;46.070;14.492;2023-04-24T05:05:17;14.00;99.90
64689;DHT22;62504;46.070;14.492;2023-04-24T05:07:43;13.90;99.90
64689;DHT22;62504;46.070;14.492;2023-04-24T05:10:09;14.00;99.90
64689;DHT22;62504;46.070;14.492;2023-04-24T05:12:35;13.90;99.90
64689;DHT22;62504;46.070;14.492;2023-04-24T05:15:00;14.00;99.90
64689;DHT22;62504;46.070;14.492;2023-04-24T05:17:26;13.90;99.90
64689;DHT22;62504;46.070;14.492;2023-04-24T05:19:52;13.80;99.90
64689;DHT22;62504;46.070;14.492;2023-04-24T05:22:17;13.80;99.90
64689;DHT22;62504;46.070;14.492;2023-04-24T05:24:46;13.70;99.90
64689;DHT22;62504;46.070;14.492;2023-04-24T05:27:12;13.70;99.90
64689;DHT22;62504;46.070;14.492;2023-04-24T05:29:38;13.70;99.90
64689;DHT22;62504;46.070;14.492;2023-04-24T05:32:03;13.60;99.90
64689;DHT22;62504;46.070;14.492;2023-04-24T05:34:29;13.70;99.90
64689;DHT22;62504;46.070;14.492;2023-04-24T05:36:55;13.80;99.90
64689;DHT22;62504;46.070;14.492;2023-04-24T05:39:21;13.90;99.90
64689;DHT22;62504;46.070;14.492;2023-04-24T05:41:46;13.90;99.90
64689;DHT22;62504;46.070;14.492;2023-04-24T05:44:12;13.80;99.90
64689;DHT22;62504;46.070;14.492;2023-04-24T05:46:38;13.80;99.90
64689;DHT22;62504;46.070;14.492;2023-04-24T05:49:03;14.00;99.90
64689;DHT22;62504;46.070;14.492;2023-04-24T05:51:29;13.90;99.90
64689;DHT22;62504;46.070;14.492;2023-04-24T05:53:55;14.00;99.90
64689;DHT22;62504;46.070;14.492;2023-04-24T05:56:21;14.00;99.90
64689;DHT22;62504;46.070;14.492;2023-04-24T05:58:47;14.00;99.90
64689;DHT22;62504;46.070;14.492;2023-04-24T06:01:13;14.10;99.90
64689;DHT22;62504;46.070;14.492;2023-04-24T06:03:42;13.90;99.90
64689;DHT22;62504;46.070;14.492;2023-04-24T06:06:08;13.80;99.90
64689;DHT22;62504;46.070;14.492;2023-04-24T06:08:35;13.70;99.90
64689;DHT22;62504;46.070;14.492;2023-04-24T06:11:01;13.80;99.90
64689;DHT22;62504;46.070;14.492;2023-04-24T06:13:26;13.80;99.90
64689;DHT22;62504;46.070;14.492;2023-04-24T06:15:52;14.00;99.90
64689;DHT22;62504;46.070;14.492;2023-04-24T06:18:18;14.00;99.90
64689;DHT22;62504;46.070;14.492;2023-04-24T06:20:45;14.10;99.90
64689;DHT22;62504;46.070;14.492;2023-04-24T06:23:11;14.20;99.90
64689;DHT22;62504;46.070;14.492;2023-04-24T06:25:37;14.10;99.90
64689;DHT22;62504;46.070;14.492;2023-04-24T06:28:03;14.10;99.90
64689;DHT22;62504;46.070;14.492;2023-04-24T06:30:29;14.10;99.90
64689;DHT22;62504;46.070;14.492;2023-04-24T06:32:54;14.20;99.90
64689;DHT22;62504;46.070;14.492;2023-04-24T06:35:20;14.30;99.90
64689;DHT22;62504;46.070;14.492;2023-04-24T06:37:46;14.20;99.90
64689;DHT22;62504;46.070;14.492;2023-04-24T06:40:12;14.10;99.90
64689;DHT22;62504;46.070;14.492;2023-04-24T06:42:38;14.30;99.90
64689;DHT22;62504;46.070;14.492;2023-04-24T06:45:04;14.20;99.90
64689;DHT22;62504;46.070;14.492;2023-04-24T06:47:30;14.20;99.90
64689;DHT22;62504;46.070;14.492;2023-04-24T06:49:56;14.30;99.90
64689;DHT22;62504;46.070;14.492;2023-04-24T06:52:21;14.30;99.90
64689;DHT22;62504;46.070;14.492;2023-04-24T06:54:47;14.40;99.90
64689;DHT22;62504;46.070;14.492;2023-04-24T06:57:13;14.40;99.90
64689;DHT22;62504;46.070;14.492;2023-04-24T06:59:38;14.50;99.90
64689;DHT22;62504;46.070;14.492;2023-04-24T07:02:04;14.60;99.90
64689;DHT22;62504;46.070;14.492;2023-04-24T07:04:30;14.60;99.90
64689;DHT22;62504;46.070;14.492;2023-04-24T07:06:56;14.80;99.90
64689;DHT22;62504;46.070;14.492;2023-04-24T07:09:23;14.90;99.90
64689;DHT22;62504;46.070;14.492;2023-04-24T07:11:51;15.00;99.90
64689;DHT22;62504;46.070;14.492;2023-04-24T07:14:17;15.00;99.90
64689;DHT22;62504;46.070;14.492;2023-04-24T07:16:42;15.00;99.90
64689;DHT22;62504;46.070;14.492;2023-04-24T07:19:08;15.00;99.90
64689;DHT22;62504;46.070;14.492;2023-04-24T07:21:34;14.90;99.90
64689;DHT22;62504;46.070;14.492;2023-04-24T07:24:00;14.70;99.90
64689;DHT22;62504;46.070;14.492;2023-04-24T07:26:28;14.70;99.90
64689;DHT22;62504;46.070;14.492;2023-04-24T07:28:54;14.60;99.90
64689;DHT22;62504;46.070;14.492;2023-04-24T07:31:20;14.50;99.90
64689;DHT22;62504;46.070;14.492;2023-04-24T07:33:46;14.50;99.90
64689;DHT22;62504;46.070;14.492;2023-04-24T07:36:12;14.40;99.90
64689;DHT22;62504;46.070;14.492;2023-04-24T07:38:45;14.30;99.90
64689;DHT22;62504;46.070;14.492;2023-04-24T07:41:12;14.30;99.90
64689;DHT22;62504;46.070;14.492;2023-04-24T07:43:37;14.30;99.90
64689;DHT22;62504;46.070;14.492;2023-04-24T07:46:03;14.30;99.90
64689;DHT22;62504;46.070;14.492;2023-04-24T07:48:29;14.30;99.90
64689;DHT22;62504;46.070;14.492;2023-04-24T07:50:54;14.30;99.90
64689;DHT22;62504;46.070;14.492;2023-04-24T07:53:20;14.20;99.90
64689;DHT22;62504;46.070;14.492;2023-04-24T07:55:46;14.30;99.90
64689;DHT22;62504;46.070;14.492;2023-04-24T07:58:12;14.40;99.90
64689;DHT22;62504;46.070;14.492;2023-04-24T08:00:37;14.40;99.90
64689;DHT22;62504;46.070;14.492;2023-04-24T08:03:03;14.30;99.90
64689;DHT22;62504;46.070;14.492;2023-04-24T08:05:43;14.30;99.90
64689;DHT22;62504;46.070;14.492;2023-04-24T08:08:08;14.40;99.90
64689;DHT22;62504;46.070;14.492;2023-04-24T08:10:34;14.50;99.90
64689;DHT22;62504;46.070;14.492;2023-04-24T08:13:00;14.60;99.90
64689;DHT22;62504;46.070;14.492;2023-04-24T08:15:27;14.50;99.90
64689;DHT22;62504;46.070;14.492;2023-04-24T08:17:53;14.40;99.90
64689;DHT22;62504;46.070;14.492;2023-04-24T08:20:18;14.40;99.90
64689;DHT22;62504;46.070;14.492;2023-04-24T08:22:44;14.40;99.90
64689;DHT22;62504;46.070;14.492;2023-04-24T08:25:12;14.50;99.90
64689;DHT22;62504;46.070;14.492;2023-04-24T08:27:38;14.60;99.90
64689;DHT22;62504;46.070;14.492;2023-04-24T08:30:05;14.50;99.90
64689;DHT22;62504;46.070;14.492;2023-04-24T08:32:31;14.50;99.90
64689;DHT22;62504;46.070;14.492;2023-04-24T08:34:58;14.60;99.90
64689;DHT22;62504;46.070;14.492;2023-04-24T08:37:26;14.60;99.90
64689;DHT22;62504;46.070;14.492;2023-04-24T08:39:52;14.60;99.90
64689;DHT22;62504;46.070;14.492;2023-04-24T08:42:19;14.60;99.90
64689;DHT22;62504;46.070;14.492;2023-04-24T08:44:44;14.50;99.90
64689;DHT22;62504;46.070;14.492;2023-04-24T08:47:11;14.50;99.90
64689;DHT22;62504;46.070;14.492;2023-04-24T08:49:37;14.50;99.90
64689;DHT22;62504;46.070;14.492;2023-04-24T08:52:05;14.40;99.90
64689;DHT22;62504;46.070;14.492;2023-04-24T08:54:33;14.50;99.90
64689;DHT22;62504;46.070;14.492;2023-04-24T08:57:00;14.50;99.90
64689;DHT22;62504;46.070;14.492;2023-04-24T08:59:27;14.50;99.90
64689;DHT22;62504;46.070;14.492;2023-04-24T09:01:55;14.50;99.90
64689;DHT22;62504;46.070;14.492;2023-04-24T09:04:22;14.50;99.90
64689;DHT22;62504;46.070;14.492;2023-04-24T09:06:56;14.50;99.90
64689;DHT22;62504;46.070;14.492;2023-04-24T09:09:25;14.50;99.90
64689;DHT22;62504;46.070;14.492;2023-04-24T09:11:52;14.40;99.90
64689;DHT22;62504;46.070;14.492;2023-04-24T09:14:21;14.50;99.90
64689;DHT22;62504;46.070;14.492;2023-04-24T09:16:47;14.40;99.90
64689;DHT22;62504;46.070;14.492;2023-04-24T09:19:12;14.40;99.90
64689;DHT22;62504;46.070;14.492;2023-04-24T09:21:38;14.50;99.90
64689;DHT22;62504;46.070;14.492;2023-04-24T09:24:07;14.50;99.90
64689;DHT22;62504;46.070;14.492;2023-04-24T09:26:36;14.40;99.90
64689;DHT22;62504;46.070;14.492;2023-04-24T09:29:03;14.40;99.90
64689;DHT22;62504;46.070;14.492;2023-04-24T09:31:29;14.50;99.90
64689;DHT22;62504;46.070;14.492;2023-04-24T09:34:03;14.50;99.90
64689;DHT22;62504;46.070;14.492;2023-04-24T09:36:33;14.50;99.90
64689;DHT22;62504;46.070;14.492;2023-04-24T09:39:06;14.50;99.90
64689;DHT22;62504;46.070;14.492;2023-04-24T09:41:33;14.50;99.90
64689;DHT22;62504;46.070;14.492;2023-04-24T09:44:33;14.40;99.90
64689;DHT22;62504;46.070;14.492;2023-04-24T09:47:00;14.40;99.90
64689;DHT22;62504;46.070;14.492;2023-04-24T09:49:30;14.30;99.90
64689;DHT22;62504;46.070;14.492;2023-04-24T09:52:06;14.30;99.90
64689;DHT22;62504;46.070;14.492;2023-04-24T09:54:32;14.20;99.90
64689;DHT22;62504;46.070;14.492;2023-04-24T09:56:58;14.30;99.90
64689;DHT22;62504;46.070;14.492;2023-04-24T09:59:26;14.20;99.90
64689;DHT22;62504;46.070;14.492;2023-04-24T10:01:51;14.10;99.90
64689;DHT22;62504;46.070;14.492;2023-04-24T10:04:24;14.10;99.90
64689;DHT22;62504;46.070;14.492;2023-04-24T10:06:52;14.10;99.90
64689;DHT22;62504;46.070;14.492;2023-04-24T10:09:19;14.10;99.90
64689;DHT22;62504;46.070;14.492;2023-04-24T10:11:48;14.10;99.90
64689;DHT22;62504;46.070;14.492;2023-04-24T10:14:15;14.00;99.90
64689;DHT22;62504;46.070;14.492;2023-04-24T10:16:42;14.00;99.90
64689;DHT22;62504;46.070;14.492;2023-04-24T10:19:09;13.90;99.90
64689;DHT22;62504;46.070;14.492;2023-04-24T10:21:36;14.00;99.90
64689;DHT22;62504;46.070;14.492;2023-04-24T10:24:08;13.90;99.90
64689;DHT22;62504;46.070;14.492;2023-04-24T10:26:35;13.90;99.90
64689;DHT22;62504;46.070;14.492;2023-04-24T10:29:05;13.90;99.90
64689;DHT22;62504;46.070;14.492;2023-04-24T10:31:36;13.90;99.90
64689;DHT22;62504;46.070;14.492;2023-04-24T10:34:02;13.80;99.90
64689;DHT22;62504;46.070;14.492;2023-04-24T10:36:29;13.80;99.90
64689;DHT22;62504;46.070;14.492;2023-04-24T10:39:00;13.80;99.90
64689;DHT22;62504;46.070;14.492;2023-04-24T10:41:26;13.80;99.90
64689;DHT22;62504;46.070;14.492;2023-04-24T10:46:34;13.60;99.90
64689;DHT22;62504;46.070;14.492;2023-04-24T10:49:06;13.70;99.90
64689;DHT22;62504;46.070;14.492;2023-04-24T10:56:52;13.70;99.90
64689;DHT22;62504;46.070;14.492;2023-04-24T10:59:28;13.60;99.90
64689;DHT22;62504;46.070;14.492;2023-04-24T11:02:00;13.70;99.90
64689;DHT22;62504;46.070;14.492;2023-04-24T11:04:30;13.60;99.90
64689;DHT22;62504;46.070;14.492;2023-04-24T11:06:57;13.70;99.90
64689;DHT22;62504;46.070;14.492;2023-04-24T11:09:22;13.70;99.90
64689;DHT22;62504;46.070;14.492;2023-04-24T11:17:30;14.10;99.90
64689;DHT22;62504;46.070;14.492;2023-04-24T11:22:33;14.10;99.90
64689;DHT22;62504;46.070;14.492;2023-04-24T11:25:01;14.10;99.90
64689;DHT22;62504;46.070;14.492;2023-04-24T11:27:31;14.10;99.90
64689;DHT22;62504;46.070;14.492;2023-04-24T11:30:01;14.10;99.90
64689;DHT22;62504;46.070;14.492;2023-04-24T11:37:39;14.10;99.90
64689;DHT22;62504;46.070;14.492;2023-04-24T11:40:07;14.20;99.90
64689;DHT22;62504;46.070;14.492;2023-04-24T11:42:38;14.10;99.90
64689;DHT22;62504;46.070;14.492;2023-04-24T11:45:14;13.80;99.90
64689;DHT22;62504;46.070;14.492;2023-04-24T11:47:41;13.80;99.90
64689;DHT22;62504;46.070;14.492;2023-04-24T11:50:11;13.90;99.90
64689;DHT22;62504;46.070;14.492;2023-04-24T11:52:39;13.90;99.90
64689;DHT22;62504;46.070;14.492;2023-04-24T11:57:49;13.90;99.90
64689;DHT22;62504;46.070;14.492;2023-04-24T12:00:24;13.90;99.90
64689;DHT22;62504;46.070;14.492;2023-04-24T12:02:50;13.80;99.90
64689;DHT22;62504;46.070;14.492;2023-04-24T12:05:35;13.90;99.90
64689;DHT22;62504;46.070;14.492;2023-04-24T12:08:01;13.90;99.90
64689;DHT22;62504;46.070;14.492;2023-04-24T12:10:28;13.90;99.90
64689;DHT22;62504;46.070;14.492;2023-04-24T12:12:56;14.00;99.90
64689;DHT22;62504;46.070;14.492;2023-04-24T12:15:22;14.00;99.90
64689;DHT22;62504;46.070;14.492;2023-04-24T12:17:50;13.90;99.90
64689;DHT22;62504;46.070;14.492;2023-04-24T12:20:16;13.90;99.90
64689;DHT22;62504;46.070;14.492;2023-04-24T12:22:46;14.00;99.90
64689;DHT22;62504;46.070;14.492;2023-04-24T12:25:13;13.90;99.90
64689;DHT22;62504;46.070;14.492;2023-04-24T12:27:39;13.90;99.90
64689;DHT22;62504;46.070;14.492;2023-04-24T12:30:05;13.90;99.90
64689;DHT22;62504;46.070;14.492;2023-04-24T12:32:35;14.00;99.90
64689;DHT22;62504;46.070;14.492;2023-04-24T12:35:00;14.10;99.90
64689;DHT22;62504;46.070;14.492;2023-04-24T12:37:33;14.00;99.90
64689;DHT22;62504;46.070;14.492;2023-04-24T12:40:09;14.00;99.90
64689;DHT22;62504;46.070;14.492;2023-04-24T12:42:41;14.00;99.90
64689;DHT22;62504;46.070;14.492;2023-04-24T12:45:07;14.10;99.90
64689;DHT22;62504;46.070;14.492;2023-04-24T12:47:34;13.90;99.90
64689;DHT22;62504;46.070;14.492;2023-04-24T12:50:01;14.00;99.90
64689;DHT22;62504;46.070;14.492;2023-04-24T12:52:28;14.00;99.90
64689;DHT22;62504;46.070;14.492;2023-04-24T12:54:59;14.10;99.90
64689;DHT22;62504;46.070;14.492;2023-04-24T12:57:29;14.10;99.90
64689;DHT22;62504;46.070;14.492;2023-04-24T12:59:59;14.10;99.90
64689;DHT22;62504;46.070;14.492;2023-04-24T13:02:26;14.20;99.90
64689;DHT22;62504;46.070;14.492;2023-04-24T13:04:53;14.20;99.90
64689;DHT22;62504;46.070;14.492;2023-04-24T13:07:19;14.30;99.90
64689;DHT22;62504;46.070;14.492;2023-04-24T13:09:45;14.40;99.90
64689;DHT22;62504;46.070;14.492;2023-04-24T13:12:12;14.40;99.90
64689;DHT22;62504;46.070;14.492;2023-04-24T13:14:38;14.20;99.90
64689;DHT22;62504;46.070;14.492;2023-04-24T13:17:04;14.10;99.90
64689;DHT22;62504;46.070;14.492;2023-04-24T13:19:44;14.10;99.90
64689;DHT22;62504;46.070;14.492;2023-04-24T13:22:11;14.10;99.90
64689;DHT22;62504;46.070;14.492;2023-04-24T13:24:38;14.00;99.90
64689;DHT22;62504;46.070;14.492;2023-04-24T13:27:05;14.00;99.90
64689;DHT22;62504;46.070;14.492;2023-04-24T13:29:30;14.10;99.90
64689;DHT22;62504;46.070;14.492;2023-04-24T13:31:56;13.90;99.90
64689;DHT22;62504;46.070;14.492;2023-04-24T13:34:26;13.90;99.90
64689;DHT22;62504;46.070;14.492;2023-04-24T13:36:56;13.90;99.90
64689;DHT22;62504;46.070;14.492;2023-04-24T13:39:23;13.70;99.90
64689;DHT22;62504;46.070;14.492;2023-04-24T13:41:49;13.70;99.90
64689;DHT22;62504;46.070;14.492;2023-04-24T13:44:16;13.70;99.90
64689;DHT22;62504;46.070;14.492;2023-04-24T13:46:43;13.70;99.90
64689;DHT22;62504;46.070;14.492;2023-04-24T13:49:10;13.70;99.90
64689;DHT22;62504;46.070;14.492;2023-04-24T13:51:36;13.60;99.90
64689;DHT22;62504;46.070;14.492;2023-04-24T13:54:01;13.60;99.90
64689;DHT22;62504;46.070;14.492;2023-04-24T13:56:27;13.50;99.90
64689;DHT22;62504;46.070;14.492;2023-04-24T13:58:53;13.50;99.90
64689;DHT22;62504;46.070;14.492;2023-04-24T14:01:22;13.50;99.90
64689;DHT22;62504;46.070;14.492;2023-04-24T14:03:51;13.40;99.90
64689;DHT22;62504;46.070;14.492;2023-04-24T14:06:18;13.50;99.90
64689;DHT22;62504;46.070;14.492;2023-04-24T14:08:43;13.60;99.90
64689;DHT22;62504;46.070;14.492;2023-04-24T14:11:09;13.60;99.90
64689;DHT22;62504;46.070;14.492;2023-04-24T14:13:36;13.70;99.90
64689;DHT22;62504;46.070;14.492;2023-04-24T14:16:03;13.60;99.90
64689;DHT22;62504;46.070;14.492;2023-04-24T14:18:29;13.60;99.90
64689;DHT22;62504;46.070;14.492;2023-04-24T14:20:55;13.60;99.90
64689;DHT22;62504;46.070;14.492;2023-04-24T14:23:21;13.60;99.90
64689;DHT22;62504;46.070;14.492;2023-04-24T14:25:47;13.50;99.90
64689;DHT22;62504;46.070;14.492;2023-04-24T14:28:16;13.50;99.90
64689;DHT22;62504;46.070;14.492;2023-04-24T14:30:43;13.50;99.90
64689;DHT22;62504;46.070;14.492;2023-04-24T14:33:08;13.60;99.90
64689;DHT22;62504;46.070;14.492;2023-04-24T14:35:35;13.60;99.90
64689;DHT22;62504;46.070;14.492;2023-04-24T14:38:01;13.40;99.90
64689;DHT22;62504;46.070;14.492;2023-04-24T14:40:27;13.50;99.90
64689;DHT22;62504;46.070;14.492;2023-04-24T14:42:53;13.60;99.90
64689;DHT22;62504;46.070;14.492;2023-04-24T14:45:19;13.30;99.90
64689;DHT22;62504;46.070;14.492;2023-04-24T14:47:45;13.40;99.90
64689;DHT22;62504;46.070;14.492;2023-04-24T14:50:11;13.30;99.90
64689;DHT22;62504;46.070;14.492;2023-04-24T14:52:38;13.40;99.90
64689;DHT22;62504;46.070;14.492;2023-04-24T14:55:04;13.40;99.90
64689;DHT22;62504;46.070;14.492;2023-04-24T14:57:30;13.30;99.90
64689;DHT22;62504;46.070;14.492;2023-04-24T14:59:56;13.30;99.90
64689;DHT22;62504;46.070;14.492;2023-04-24T15:02:21;13.40;99.90
64689;DHT22;62504;46.070;14.492;2023-04-24T15:04:47;13.50;99.90
64689;DHT22;62504;46.070;14.492;2023-04-24T15:07:13;13.40;99.90
64689;DHT22;62504;46.070;14.492;2023-04-24T15:09:38;13.50;99.90
64689;DHT22;62504;46.070;14.492;2023-04-24T15:12:04;13.50;99.90
64689;DHT22;62504;46.070;14.492;2023-04-24T15:14:30;13.50;99.90
64689;DHT22;62504;46.070;14.492;2023-04-24T15:16:55;13.60;99.90
64689;DHT22;62504;46.070;14.492;2023-04-24T15:19:21;13.70;99.90
64689;DHT22;62504;46.070;14.492;2023-04-24T15:21:47;13.70;99.90
64689;DHT22;62504;46.070;14.492;2023-04-24T15:24:12;13.60;99.90
64689;DHT22;62504;46.070;14.492;2023-04-24T15:26:38;13.60;99.90
64689;DHT22;62504;46.070;14.492;2023-04-24T15:29:04;13.60;99.90
64689;DHT22;62504;46.070;14.492;2023-04-24T15:31:29;13.60;99.90
64689;DHT22;62504;46.070;14.492;2023-04-24T15:33:55;13.50;99.90
64689;DHT22;62504;46.070;14.492;2023-04-24T15:36:21;13.50;99.90